createdAt,value
2017-05-13T08:34:16.151Z,20.50
2017-05-13T08:36:44.650Z,20.30
2017-05-13T08:39:12.969Z,20.00
2017-05-13T08:41:41.282Z,19.80
2017-05-13T08:44:09.720Z,19.80
2017-05-13T08:46:38.975Z,19.80
2017-05-13T08:49:07.330Z,19.80
2017-05-13T08:51:35.958Z,19.80
2017-05-13T08:54:04.274Z,19.90
2017-05-13T08:56:32.585Z,20.00
2017-05-13T09:20:42.101Z,19.60
2017-05-13T09:23:10.453Z,19.70
2017-05-13T09:25:38.754Z,19.80
2017-05-13T09:28:07.214Z,19.90
2017-05-13T09:30:35.535Z,19.80
2017-05-13T09:33:04.617Z,19.70
2017-05-13T09:35:32.930Z,19.90
2017-05-13T09:38:01.253Z,20.10
2017-05-13T09:40:29.901Z,20.30
2017-05-13T09:42:58.219Z,20.40
2017-05-13T09:45:26.532Z,20.50
2017-05-13T09:47:55.589Z,20.50
2017-05-13T09:59:05.729Z,20.70
2017-05-13T10:01:34.033Z,20.50
2017-05-13T10:04:02.364Z,20.40
2017-05-13T10:06:31.714Z,20.30
2017-05-13T10:09:00.039Z,20.30
2017-05-13T10:11:28.393Z,20.50
2017-05-13T10:13:56.711Z,20.70
2017-05-13T10:16:25.065Z,20.90
2017-05-13T10:18:53.394Z,21.10
2017-05-13T10:21:21.741Z,21.20
2017-05-13T10:23:50.103Z,21.20
2017-05-13T10:26:18.414Z,21.30
2017-05-13T10:28:47.487Z,21.50
2017-05-13T10:31:16.042Z,21.80
2017-05-13T10:33:44.470Z,21.70
2017-05-13T10:36:12.786Z,21.60
2017-05-13T10:38:41.106Z,21.50
2017-05-13T10:41:09.510Z,21.60
2017-05-13T10:43:38.585Z,21.60
2017-05-13T10:46:06.898Z,21.80
2017-05-13T10:48:35.953Z,21.70
2017-05-13T10:51:04.341Z,21.70
2017-05-13T10:53:32.668Z,21.60
2017-05-13T10:56:00.991Z,21.50
2017-05-13T10:58:29.351Z,21.30
2017-05-13T11:00:57.669Z,21.20
2017-05-13T11:03:26.743Z,21.10
2017-05-13T11:05:55.207Z,21.20
2017-05-13T11:08:23.160Z,21.20
2017-05-13T11:10:51.514Z,21.40
2017-05-13T11:13:19.874Z,21.40
2017-05-13T11:15:48.942Z,21.30
2017-05-13T11:18:17.262Z,21.20
2017-05-13T11:20:45.694Z,21.10
2017-05-13T11:23:14.036Z,21.10
2017-05-13T11:25:42.362Z,21.30
2017-05-13T11:28:10.682Z,21.40
2017-05-13T11:30:38.996Z,21.50
2017-05-13T11:33:07.622Z,21.70
2017-05-13T11:35:35.983Z,21.80
2017-05-13T11:38:04.299Z,21.80
2017-05-13T11:40:33.358Z,21.60
2017-05-13T11:43:02.053Z,21.50
2017-05-13T11:45:30.374Z,21.40
2017-05-13T11:47:58.733Z,21.40
2017-05-13T11:50:27.838Z,21.40
2017-05-13T11:52:56.173Z,21.40
2017-05-13T11:55:24.498Z,21.40
2017-05-13T11:57:52.825Z,21.40
2017-05-13T12:00:21.501Z,21.60
2017-05-13T12:02:49.844Z,21.80
2017-05-13T12:05:18.161Z,22.00
2017-05-13T12:07:46.485Z,22.00
2017-05-13T12:10:15.536Z,21.90
2017-05-13T12:12:43.909Z,22.00
2017-05-13T12:15:12.223Z,22.20
2017-05-13T12:17:41.624Z,22.30
2017-05-13T12:20:09.953Z,22.60
2017-05-13T12:22:38.270Z,22.60
2017-05-13T12:25:06.605Z,22.70
2017-05-13T12:27:34.922Z,22.90
2017-05-13T12:30:03.426Z,23.10
2017-05-13T12:32:32.481Z,23.30
2017-05-13T12:35:00.800Z,23.60
2017-05-13T12:37:29.864Z,23.70
2017-05-13T12:39:58.186Z,23.70
2017-05-13T12:42:27.742Z,23.80
2017-05-13T12:44:56.054Z,23.90
2017-05-13T12:47:24.411Z,24.00
2017-05-13T12:49:52.724Z,24.00
2017-05-13T12:52:21.786Z,24.00
2017-05-13T12:54:50.108Z,24.00
2017-05-13T12:57:19.341Z,24.00
2017-05-13T12:59:47.653Z,23.90
2017-05-13T13:02:15.966Z,23.70
2017-05-13T13:04:44.450Z,23.50
2017-05-13T13:07:12.778Z,23.30
2017-05-13T13:09:41.109Z,23.20
2017-05-13T13:12:09.431Z,23.30
2017-05-13T13:14:37.751Z,23.40
2017-05-13T13:17:06.813Z,23.20
2017-05-13T13:19:35.274Z,23.10
2017-05-13T13:22:03.605Z,22.90
2017-05-13T13:24:32.670Z,22.80
2017-05-13T13:27:00.978Z,22.90
2017-05-13T13:29:30.030Z,23.10
2017-05-13T13:31:58.343Z,23.40
2017-05-13T13:34:27.410Z,23.50
2017-05-13T13:36:55.725Z,23.60
2017-05-13T13:39:24.779Z,23.70
2017-05-13T13:41:53.098Z,23.70
2017-05-13T13:44:24.926Z,23.90
2017-05-13T13:46:53.235Z,24.00
2017-05-13T13:49:22.283Z,24.00
2017-05-13T13:51:50.642Z,24.10
2017-05-13T13:54:18.998Z,24.30
2017-05-13T13:56:47.314Z,24.30
2017-05-13T13:59:15.630Z,24.40
2017-05-13T14:01:43.949Z,24.50
2017-05-13T14:04:12.271Z,24.60
2017-05-13T14:06:40.582Z,24.70
2017-05-13T14:09:12.886Z,24.70
2017-05-13T14:11:41.204Z,24.80
2017-05-13T14:14:09.566Z,24.80
2017-05-13T14:16:37.885Z,24.90
2017-05-13T14:19:10.672Z,25.10
2017-05-13T14:21:40.248Z,25.30
2017-05-13T14:24:08.570Z,25.30
2017-05-13T14:26:37.922Z,25.30
2017-05-13T14:29:06.247Z,25.40
2017-05-13T14:31:34.557Z,25.30
2017-05-13T14:34:02.911Z,25.20
2017-05-13T14:36:31.226Z,25.00
2017-05-13T14:38:59.539Z,24.70
2017-05-13T14:41:28.599Z,24.60
2017-05-13T14:43:57.226Z,24.40
2017-05-13T14:46:26.284Z,24.20
2017-05-13T14:48:54.599Z,24.10
2017-05-13T14:51:23.659Z,24.00
2017-05-13T14:53:51.971Z,23.90
2017-05-13T14:56:21.465Z,23.80
2017-05-13T14:58:49.785Z,23.80
2017-05-13T15:01:18.101Z,23.80
2017-05-13T15:03:46.416Z,23.90
2017-05-13T15:06:15.481Z,24.20
2017-05-13T15:08:43.795Z,24.50
2017-05-13T15:11:12.117Z,24.70
2017-05-13T15:13:40.582Z,24.60
2017-05-13T15:16:08.892Z,24.70
2017-05-13T15:18:37.972Z,24.70
2017-05-13T15:21:06.310Z,24.60
2017-05-13T15:23:34.625Z,24.70
2017-05-13T15:26:03.346Z,24.90
2017-05-13T15:28:31.674Z,24.90
2017-05-13T15:30:59.996Z,24.70
2017-05-13T15:33:28.309Z,24.60
2017-05-13T15:35:56.625Z,24.50
2017-05-13T15:38:24.941Z,24.40
2017-05-13T15:40:53.729Z,24.20
2017-05-13T15:43:22.786Z,24.10
2017-05-13T15:45:51.110Z,24.00
2017-05-13T15:48:20.173Z,24.00
2017-05-13T15:50:49.643Z,24.10
2017-05-13T15:53:17.970Z,24.30
2017-05-13T15:55:46.281Z,24.60
2017-05-13T15:58:15.371Z,24.90
2017-05-13T16:00:44.416Z,25.30
2017-05-13T16:03:12.728Z,25.60
2017-05-13T16:05:41.042Z,25.90
2017-05-13T16:08:09.359Z,26.00
2017-05-13T16:10:37.713Z,26.20
2017-05-13T16:13:06.021Z,26.30
2017-05-13T16:15:34.735Z,26.50
2017-05-13T16:18:03.802Z,26.40
2017-05-13T16:20:32.115Z,26.10
2017-05-13T16:23:01.186Z,25.80
2017-05-13T16:25:29.498Z,25.60
2017-05-13T16:27:58.401Z,25.30
2017-05-13T16:30:26.711Z,25.20
2017-05-13T16:32:55.023Z,25.20
2017-05-13T16:35:24.077Z,25.00
2017-05-13T16:37:52.396Z,24.90
2017-05-13T16:40:20.715Z,24.80
2017-05-13T16:42:49.082Z,24.70
2017-05-13T16:45:18.251Z,24.50
2017-05-13T16:47:46.562Z,24.40
2017-05-13T16:50:14.878Z,24.20
2017-05-13T16:52:43.195Z,24.10
2017-05-13T16:55:12.247Z,23.90
2017-05-13T16:57:40.562Z,23.80
2017-05-13T17:00:09.635Z,23.70
2017-05-13T17:02:43.154Z,23.60
2017-05-13T17:05:11.471Z,23.60
2017-05-13T17:07:39.788Z,23.50
2017-05-13T17:10:08.114Z,23.40
2017-05-13T17:12:36.428Z,23.30
2017-05-13T17:15:04.839Z,23.20
2017-05-13T17:17:33.149Z,23.10
2017-05-13T17:20:01.467Z,22.90
2017-05-13T17:22:29.838Z,22.80
2017-05-13T17:24:58.157Z,22.70
2017-05-13T17:27:26.469Z,22.60
2017-05-13T17:29:54.782Z,22.50
2017-05-13T17:32:23.159Z,22.40
2017-05-13T17:34:51.468Z,22.30
2017-05-13T17:37:19.807Z,22.20
2017-05-13T17:39:48.114Z,22.20
2017-05-13T17:42:16.417Z,22.10
2017-05-13T17:44:45.509Z,22.00
2017-05-13T17:47:14.875Z,22.00
2017-05-13T17:49:43.186Z,21.90
2017-05-13T17:52:11.546Z,21.80
2017-05-13T17:54:40.008Z,21.70
2017-05-13T17:57:08.314Z,21.70
2017-05-13T17:59:37.050Z,21.60
2017-05-13T18:02:05.505Z,21.60
2017-05-13T18:04:34.561Z,21.50
2017-05-13T18:07:02.869Z,21.40
2017-05-13T18:09:31.929Z,21.30
2017-05-13T18:12:00.294Z,21.20
2017-05-13T18:14:28.675Z,21.10
2017-05-13T18:16:57.002Z,20.90
2017-05-13T18:19:26.065Z,20.80
2017-05-13T18:21:54.386Z,20.70
2017-05-13T18:24:22.711Z,20.50
2017-05-13T18:26:51.346Z,20.40
2017-05-13T18:29:19.666Z,20.30
2017-05-13T18:31:47.981Z,20.30
2017-05-13T18:34:16.302Z,20.20
2017-05-13T18:36:45.981Z,20.10
2017-05-13T18:39:15.046Z,20.00
2017-05-13T18:41:43.362Z,19.90
2017-05-13T18:44:12.423Z,19.80
2017-05-13T18:46:40.873Z,19.70
2017-05-13T18:49:09.197Z,19.60
2017-05-13T18:51:37.530Z,19.50
2017-05-13T18:54:05.862Z,19.50
2017-05-13T18:56:34.929Z,19.40
2017-05-13T18:59:03.243Z,19.30
2017-05-13T19:01:32.301Z,19.20
2017-05-13T19:04:00.609Z,19.20
2017-05-13T19:06:30.010Z,19.10
2017-05-13T19:08:59.069Z,19.00
2017-05-13T19:11:27.394Z,18.90
2017-05-13T19:13:56.447Z,18.80
2017-05-13T19:16:24.762Z,18.80
2017-05-13T19:18:53.822Z,18.70
2017-05-13T19:21:22.133Z,18.60
2017-05-13T19:23:51.446Z,18.60
2017-05-13T19:26:20.502Z,18.50
2017-05-13T19:28:48.829Z,18.50
2017-05-13T19:31:17.158Z,18.50
2017-05-13T19:33:45.467Z,18.40
2017-05-13T19:36:16.509Z,18.40
2017-05-13T19:38:45.562Z,18.20
2017-05-13T19:41:13.878Z,18.00
2017-05-13T19:43:42.191Z,17.90
2017-05-13T19:46:10.493Z,17.80
2017-05-13T19:48:39.502Z,17.80
2017-05-13T19:51:07.821Z,17.70
2017-05-13T19:53:36.877Z,17.60
2017-05-13T19:56:05.210Z,17.50
2017-05-13T19:58:33.959Z,17.40
2017-05-13T20:01:02.270Z,17.40
2017-05-13T20:03:30.592Z,17.30
2017-05-13T20:05:58.893Z,17.20
2017-05-13T20:08:27.202Z,17.10
2017-05-13T20:10:55.710Z,17.00
2017-05-13T20:13:24.035Z,17.00
2017-05-13T20:15:53.156Z,16.90
2017-05-13T20:18:21.615Z,16.80
2017-05-13T20:20:49.955Z,16.80
2017-05-13T20:23:18.258Z,16.70
2017-05-13T20:25:50.849Z,16.70
2017-05-13T20:28:19.154Z,16.60
2017-05-13T20:30:47.465Z,16.50
2017-05-13T20:33:15.826Z,16.40
2017-05-13T20:35:45.693Z,16.40
2017-05-13T20:38:14.006Z,16.30
2017-05-13T20:40:42.314Z,16.30
2017-05-13T20:43:10.626Z,16.20
2017-05-13T20:45:38.944Z,16.20
2017-05-13T20:48:07.254Z,16.10
2017-05-13T20:50:35.602Z,16.00
2017-05-13T20:53:03.910Z,16.00
2017-05-13T20:55:32.213Z,16.00
2017-05-13T20:58:00.525Z,16.00
2017-05-13T21:00:28.833Z,16.00
2017-05-13T21:02:57.140Z,16.00
2017-05-13T21:05:25.457Z,16.00
2017-05-13T21:07:54.113Z,16.00
2017-05-13T21:10:22.421Z,15.90
2017-05-13T21:12:50.730Z,15.80
2017-05-13T21:15:19.038Z,15.80
2017-05-13T21:17:47.351Z,15.80
2017-05-13T21:20:16.093Z,15.70
2017-05-13T21:22:44.401Z,15.70
2017-05-13T21:25:13.602Z,15.70
2017-05-13T21:27:42.660Z,15.60
2017-05-13T21:30:10.973Z,15.50
2017-05-13T21:32:40.033Z,15.50
2017-05-13T21:35:08.346Z,15.40
2017-05-13T21:37:58.702Z,15.30
2017-05-13T21:40:27.378Z,15.30
2017-05-13T21:42:55.693Z,15.20
2017-05-13T21:45:24.015Z,15.20
2017-05-13T21:47:52.328Z,15.10
2017-05-13T21:50:20.639Z,15.20
2017-05-13T21:52:49.689Z,15.10
2017-05-13T21:55:18.637Z,15.20
2017-05-13T21:57:47.690Z,15.20
2017-05-13T22:00:16.001Z,15.20
2017-05-13T22:02:45.165Z,15.20
2017-05-13T22:05:13.482Z,15.20
2017-05-13T22:07:42.530Z,15.10
2017-05-13T22:10:10.858Z,15.20
2017-05-13T22:12:39.917Z,15.20
2017-05-13T22:15:08.231Z,15.20
2017-05-13T22:17:37.303Z,15.20
2017-05-13T22:20:05.717Z,15.20
2017-05-13T22:22:34.034Z,15.20
2017-05-13T22:25:02.346Z,15.20
2017-05-13T22:27:30.701Z,15.20
2017-05-13T22:29:59.014Z,15.20
2017-05-13T22:32:28.480Z,15.20
2017-05-13T22:34:56.794Z,15.20
2017-05-13T22:37:25.984Z,15.20
2017-05-13T22:39:54.298Z,15.20
2017-05-13T22:42:22.611Z,15.20
2017-05-13T22:44:51.332Z,15.20
2017-05-13T22:47:20.386Z,15.10
2017-05-13T22:49:48.698Z,15.10
2017-05-13T22:52:17.082Z,15.00
2017-05-13T22:54:46.143Z,15.00
2017-05-13T22:57:14.459Z,15.00
2017-05-13T22:59:42.778Z,15.00
2017-05-13T23:02:11.091Z,15.00
2017-05-13T23:04:39.406Z,15.00
2017-05-13T23:07:08.470Z,15.00
2017-05-13T23:09:36.787Z,15.00
2017-05-13T23:12:05.138Z,15.00
2017-05-13T23:14:33.785Z,14.90
2017-05-13T23:17:02.102Z,14.90
2017-05-13T23:19:30.423Z,14.90
2017-05-13T23:21:58.739Z,14.90
2017-05-13T23:24:27.057Z,14.90
2017-05-13T23:26:56.107Z,14.90
2017-05-13T23:29:24.428Z,14.90
2017-05-13T23:31:53.481Z,14.80
2017-05-13T23:34:21.807Z,14.90
2017-05-13T23:36:50.962Z,14.80
2017-05-13T23:39:19.519Z,14.90
2017-05-13T23:41:47.829Z,14.80
2017-05-13T23:44:16.169Z,14.80
2017-05-13T23:46:44.489Z,14.80
2017-05-13T23:49:13.189Z,14.80
2017-05-13T23:51:41.505Z,14.80
2017-05-13T23:54:09.818Z,14.80
2017-05-13T23:56:38.132Z,14.80
2017-05-13T23:59:07.182Z,14.80
